Zarate, Argentina
Current Conditions -  °F | °C
As of 2:00 AM on Thursday 23 Oct 2014 (Local Time) from SADF Reporting Station
Clear Clear  
Wind Chill: 68°   Ceiling: Unl
Heat Index: 68°   Visibility: 6mi
Dew Point: 59°   Wind: 0mph
Humidity: 73%   Direction: NA
Pressure: 30"   Gusts: NA
Location:  34.09°S, 59.04°W
Report Text: SADF 230500Z 00000KT CAVOK 20/15 Q1016
Loading
Personal Weather Stations






























Interactive Weather Map New forecast layout! Learn more

10-Day Weather Forecast

Advertisements
Track Severe Weather on mobile